Bere Alston, United Kingdom
Current Conditions -  °F | °C
As of 5:50 PM on Sunday 25 Jan 2015 (Local Time) from EGHQ Reporting Station
Drizzle Drizzle  
Wind Chill: 41°   Ceiling: 300
Heat Index: 46°   Visibility: 1.2mi
Dew Point: 46°   Wind: 10mph
Humidity: 100%   Direction: 210°SSW
Pressure: 30.39"   Gusts: NA
Location:  50.48°N, 4.19°W
Report Text: EGHQ 251750Z 21009KT 2000 DZ BR OVC003 08/08 Q1029
Loading
Personal Weather Stations






























Interactive Weather Map New forecast layout! Learn more

10-Day Weather Forecast

Advertisements
Track Severe Weather on mobile